Aeroporto :
LOGIN :

Iscrizione | Disclaimer

   EN    FR    IT 

 










Sommario :    VFR   VFR Marginale   IFR   IFR Intensivo   IFR Molto Intensivo
Visibilità : 
Base nubi : 
>= 8 km
>= 3000ft
5 / 8 km
1000 / 3000 ft
1500m / 5 km
500 / 1000 ft
800 / 1500m
200 / 500 ft
< 800m
< 200 ft
Simboli :   Temporali  Nebbia  Neve Forte  Precipitazioni Forti  Vento > 20 kt
SIGMETs :   Varie  Temporali  Ghiacco  Turbolenza  Onda orograficha  Ceneri Vulcaniche






- Altitudine del aeroporto : 41 ft
- Codice IATA : PFO


LCPH - Pafos Int.

ULTIMO METAR :
  • 231230Z 04012KT 010V070 9999 FEW025 FEW035CB 28/12 Q1010

METARs OBSOLETI :
  • 231200Z 04010KT 010V070 9999 FEW025 FEW035CB 28/13 Q1010
  • 231130Z 03007KT 350V080 9999 FEW025 FEW035CB 28/14 Q1010
  • 231100Z 01008KT 350V050 9999 FEW025 SCT035CB 28/13 Q1010
  • 231030Z 03013KT 9999 FEW025 FEW035CB 28/12 Q1010
  • 231000Z 02012KT 350V060 9999 FEW025 FEW035CB 28/13 Q1010

TAF TAF LCPH
Valido dal 23 a 12 ore il 24 a 12 ore UTC


231130Z 2312/2412 04009KT 9999 FEW020
PROB30
TEMPO 2312/2412 VRB25G35KT 2000 TSRA BKN020CB
BECMG 2404/2408 12020KT



MetMap, La meteo Aeronautica in un colpo d'occhio ! - Copyright ORBIFLY Dicembre 2007 - Disclaimer

ORBIFLY MET'MAP TEAM :

Programmazione e sviluppo : Alexandra Zaïnal
Concezione e sviluppo : Baudouin d'Aumeries
Co-Programmazione e sviluppo : Marc-Olivier Méhu
Supporto tecnico e logistico : Manuel Goepfert
Aiuto per la traduzione : Arnaldo La Scala

Contatto : metmap@orbifly.com




FONTI E CREDITI :

   NOAA